Time,TemperatureF,DewpointF,PressureIn,WindDirection,WindDirectionDegrees,WindSpeedMPH,WindSpeedGustMPH,Humidity,HourlyPrecipIn,Conditions,Clouds,dailyrainin,SoftwareType,DateUTC
2013-01-07 00:03:00,46.0,27.0,30.11,North,0,0.0,-999.0,45,-99.99,,,-99.99,,2013-01-07 05:03:00,
2013-01-07 00:12:00,45.0,25.0,30.12,North,0,0.0,-999.0,45,-99.99,,,-99.99,,2013-01-07 05:12:00,
2013-01-07 00:22:00,45.0,25.0,30.12,North,0,0.0,-999.0,45,-99.99,,,-99.99,,2013-01-07 05:22:00,
2013-01-07 00:33:00,45.0,25.0,30.13,North,0,0.0,-999.0,45,-99.99,,,-99.99,,2013-01-07 05:33:00,
2013-01-07 00:42:00,45.0,25.0,30.13,North,0,0.0,-999.0,45,-99.99,,,-99.99,,2013-01-07 05:42:00,
2013-01-07 00:52:00,45.0,27.0,30.13,North,0,0.0,-999.0,48,-99.99,,,-99.99,,2013-01-07 05:52:00,
2013-01-07 01:02:00,45.0,27.0,30.13,North,0,0.0,-999.0,48,-99.99,,,-99.99,,2013-01-07 06:02:00,
2013-01-07 01:12:00,45.0,27.0,30.13,North,0,0.0,-999.0,48,-99.99,,,-99.99,,2013-01-07 06:12:00,
2013-01-07 01:22:00,45.0,27.0,30.13,North,0,0.0,-999.0,48,-99.99,,,-99.99,,2013-01-07 06:22:00,
2013-01-07 01:32:00,43.0,25.0,30.14,North,0,0.0,-999.0,48,-99.99,,,-99.99,,2013-01-07 06:32:00,
2013-01-07 01:42:00,43.0,25.0,30.14,North,0,0.0,-999.0,48,-99.99,,,-99.99,,2013-01-07 06:42:00,
2013-01-07 01:52:00,43.0,25.0,30.15,North,0,0.0,-999.0,48,-99.99,,,-99.99,,2013-01-07 06:52:00,
2013-01-07 02:02:00,43.0,25.0,30.15,North,0,0.0,-999.0,48,-99.99,,,-99.99,,2013-01-07 07:02:00,
2013-01-07 02:12:00,41.0,27.0,30.15,North,0,0.0,-999.0,56,-99.99,,,-99.99,,2013-01-07 07:12:00,
2013-01-07 02:22:00,41.0,27.0,30.15,North,0,0.0,-999.0,56,-99.99,,,-99.99,,2013-01-07 07:22:00,
2013-01-07 02:33:00,39.0,25.0,30.15,North,0,0.0,-999.0,55,-99.99,,,-99.99,,2013-01-07 07:33:00,
2013-01-07 02:42:00,39.0,25.0,30.15,North,0,0.0,-999.0,55,-99.99,,,-99.99,,2013-01-07 07:42:00,
2013-01-07 02:52:00,39.0,27.0,30.16,North,0,0.0,-999.0,60,-99.99,,,-99.99,,2013-01-07 07:52:00,
2013-01-07 03:03:00,39.0,27.0,30.16,North,0,0.0,-999.0,60,-99.99,,,-99.99,,2013-01-07 08:03:00,
2013-01-07 03:12:00,39.0,27.0,30.16,North,0,0.0,-999.0,60,-99.99,,,-99.99,,2013-01-07 08:12:00,
2013-01-07 03:22:00,39.0,27.0,30.16,North,0,0.0,-999.0,60,-99.99,,,-99.99,,2013-01-07 08:22:00,
2013-01-07 03:33:00,43.0,27.0,30.17,NW,320,6.0,-999.0,52,-99.99,,,-99.99,,2013-01-07 08:33:00,
2013-01-07 03:43:00,43.0,27.0,30.17,NW,320,6.0,-999.0,52,-99.99,,,-99.99,,2013-01-07 08:43:00,
2013-01-07 03:53:00,43.0,27.0,30.18,North,0,0.0,-999.0,52,-99.99,,,-99.99,,2013-01-07 08:53:00,
2013-01-07 04:02:00,43.0,27.0,30.18,North,0,0.0,-999.0,52,-99.99,,,-99.99,,2013-01-07 09:02:00,
2013-01-07 04:12:00,43.0,27.0,30.18,North,0,0.0,-999.0,52,-99.99,,,-99.99,,2013-01-07 09:12:00,
2013-01-07 04:23:00,43.0,27.0,30.18,North,0,0.0,-999.0,52,-99.99,,,-99.99,,2013-01-07 09:23:00,
2013-01-07 04:32:00,43.0,27.0,30.19,NW,310,7.0,-999.0,52,-99.99,,,-99.99,,2013-01-07 09:32:00,
2013-01-07 04:42:00,43.0,27.0,30.19,NW,310,7.0,-999.0,52,-99.99,,,-99.99,,2013-01-07 09:42:00,
2013-01-07 04:52:00,43.0,27.0,30.20,NW,320,7.0,-999.0,52,-99.99,,,-99.99,,2013-01-07 09:52:00,
2013-01-07 05:02:00,43.0,27.0,30.20,NW,320,7.0,-999.0,52,-99.99,,,-99.99,,2013-01-07 10:02:00,
2013-01-07 05:12:00,43.0,27.0,30.20,NW,320,7.0,-999.0,52,-99.99,,,-99.99,,2013-01-07 10:12:00,
2013-01-07 05:22:00,43.0,27.0,30.20,NW,320,7.0,-999.0,52,-99.99,,,-99.99,,2013-01-07 10:22:00,
2013-01-07 05:32:00,43.0,27.0,30.22,North,0,0.0,-999.0,52,-99.99,,,-99.99,,2013-01-07 10:32:00,
2013-01-07 05:43:00,43.0,27.0,30.22,North,0,0.0,-999.0,52,-99.99,,,-99.99,,2013-01-07 10:43:00,
2013-01-07 05:52:00,43.0,27.0,30.23,North,0,0.0,-999.0,52,-99.99,,,-99.99,,2013-01-07 10:52:00,
2013-01-07 06:02:00,43.0,27.0,30.23,North,0,0.0,-999.0,52,-99.99,,,-99.99,,2013-01-07 11:02:00,
2013-01-07 06:12:00,43.0,27.0,30.23,North,0,0.0,-999.0,52,-99.99,,,-99.99,,2013-01-07 11:12:00,
2013-01-07 06:23:00,43.0,27.0,30.23,North,0,0.0,-999.0,52,-99.99,,,-99.99,,2013-01-07 11:23:00,
2013-01-07 06:33:00,43.0,27.0,30.25,NNW,330,5.0,-999.0,52,-99.99,,,-99.99,,2013-01-07 11:33:00,
2013-01-07 06:43:00,43.0,27.0,30.25,NNW,330,5.0,-999.0,52,-99.99,,,-99.99,,2013-01-07 11:43:00,
2013-01-07 06:53:00,43.0,27.0,30.27,North,0,0.0,-999.0,52,-99.99,,,-99.99,,2013-01-07 11:53:00,
2013-01-07 07:03:00,43.0,27.0,30.27,North,0,0.0,-999.0,52,-99.99,,,-99.99,,2013-01-07 12:03:00,
2013-01-07 07:12:00,43.0,27.0,30.28,North,0,0.0,-999.0,52,-99.99,,,-99.99,,2013-01-07 12:12:00,
2013-01-07 07:23:00,43.0,27.0,30.28,North,0,0.0,-999.0,52,-99.99,,,-99.99,,2013-01-07 12:23:00,
2013-01-07 07:33:00,43.0,27.0,30.29,North,0,0.0,-999.0,52,-99.99,,,-99.99,,2013-01-07 12:33:00,
2013-01-07 07:43:00,43.0,27.0,30.29,North,0,0.0,-999.0,52,-99.99,,,-99.99,,2013-01-07 12:43:00,
2013-01-07 07:52:00,41.0,25.0,30.29,North,0,0.0,-999.0,52,-99.99,,,-99.99,,2013-01-07 12:52:00,
2013-01-07 08:03:00,41.0,25.0,30.29,North,0,0.0,-999.0,52,-99.99,,,-99.99,,2013-01-07 13:03:00,
2013-01-07 08:12:00,39.0,25.0,30.30,NW,320,6.0,-999.0,55,-99.99,,,-99.99,,2013-01-07 13:12:00,
2013-01-07 08:23:00,39.0,25.0,30.30,NW,320,6.0,-999.0,55,-99.99,,,-99.99,,2013-01-07 13:23:00,
2013-01-07 08:33:00,43.0,27.0,30.32,North,0,0.0,-999.0,52,-99.99,,,-99.99,,2013-01-07 13:33:00,
2013-01-07 08:43:00,43.0,27.0,30.32,North,0,0.0,-999.0,52,-99.99,,,-99.99,,2013-01-07 13:43:00,
2013-01-07 08:52:00,43.0,25.0,30.33,North,0,0.0,-999.0,48,-99.99,,,-99.99,,2013-01-07 13:52:00,
2013-01-07 09:03:00,43.0,25.0,30.33,North,0,0.0,-999.0,48,-99.99,,,-99.99,,2013-01-07 14:03:00,
2013-01-07 09:12:00,43.0,25.0,30.33,North,0,0.0,-999.0,48,-99.99,,,-99.99,,2013-01-07 14:12:00,
2013-01-07 09:23:00,43.0,25.0,30.33,North,0,0.0,-999.0,48,-99.99,,,-99.99,,2013-01-07 14:23:00,
2013-01-07 09:33:00,45.0,27.0,30.36,NNW,340,5.0,-999.0,48,-99.99,,,-99.99,,2013-01-07 14:33:00,
2013-01-07 09:43:00,45.0,27.0,30.36,NNW,340,5.0,-999.0,48,-99.99,,,-99.99,,2013-01-07 14:43:00,
2013-01-07 09:53:00,45.0,27.0,30.36,NNW,330,7.0,-999.0,48,-99.99,,,-99.99,,2013-01-07 14:53:00,
2013-01-07 10:03:00,45.0,27.0,30.36,NNW,330,7.0,-999.0,48,-99.99,,,-99.99,,2013-01-07 15:03:00,
2013-01-07 10:12:00,45.0,25.0,30.38,NNW,340,9.0,-999.0,45,-99.99,,,-99.99,,2013-01-07 15:12:00,
2013-01-07 10:23:00,45.0,25.0,30.38,NNW,340,9.0,-999.0,45,-99.99,,,-99.99,,2013-01-07 15:23:00,
2013-01-07 10:33:00,45.0,25.0,30.38,NW,320,10.0,15.0,45,-99.99,,,-99.99,,2013-01-07 15:33:00,
2013-01-07 10:43:00,45.0,25.0,30.38,NW,320,10.0,15.0,45,-99.99,,,-99.99,,2013-01-07 15:43:00,
2013-01-07 10:53:00,46.0,25.0,30.39,NW,320,14.0,22.0,42,-99.99,,,-99.99,,2013-01-07 15:53:00,
2013-01-07 11:03:00,46.0,25.0,30.39,NW,320,14.0,22.0,42,-99.99,,,-99.99,,2013-01-07 16:03:00,
2013-01-07 11:12:00,46.0,25.0,30.39,NW,320,12.0,16.0,42,-99.99,,,-99.99,,2013-01-07 16:12:00,
2013-01-07 11:23:00,46.0,25.0,30.39,NW,320,12.0,16.0,42,-99.99,,,-99.99,,2013-01-07 16:23:00,
2013-01-07 11:33:00,46.0,25.0,30.39,North,10,13.0,18.0,42,-99.99,,,-99.99,,2013-01-07 16:33:00,
2013-01-07 11:43:00,46.0,25.0,30.39,North,10,13.0,18.0,42,-99.99,,,-99.99,,2013-01-07 16:43:00,
2013-01-07 11:53:00,46.0,25.0,30.38,North,-99,7.0,-999.0,42,-99.99,,,-99.99,,2013-01-07 16:53:00,
2013-01-07 12:03:00,46.0,25.0,30.38,North,-99,7.0,-999.0,42,-99.99,,,-99.99,,2013-01-07 17:03:00,
2013-01-07 12:12:00,46.0,25.0,30.38,North,360,10.0,15.0,42,-99.99,,,-99.99,,2013-01-07 17:12:00,
2013-01-07 12:23:00,46.0,25.0,30.38,North,360,10.0,15.0,42,-99.99,,,-99.99,,2013-01-07 17:23:00,
2013-01-07 12:33:00,46.0,25.0,30.37,NNW,330,10.0,15.0,42,-99.99,,,-99.99,,2013-01-07 17:33:00,
2013-01-07 12:42:00,46.0,25.0,30.37,NNW,330,10.0,15.0,42,-99.99,,,-99.99,,2013-01-07 17:42:00,
2013-01-07 12:53:00,46.0,25.0,30.38,NNW,330,8.0,-999.0,42,-99.99,,,-99.99,,2013-01-07 17:53:00,
2013-01-07 13:03:00,46.0,25.0,30.38,NNW,330,8.0,-999.0,42,-99.99,,,-99.99,,2013-01-07 18:03:00,
2013-01-07 13:13:00,46.0,25.0,30.37,North,360,8.0,-999.0,42,-99.99,,,-99.99,,2013-01-07 18:13:00,
2013-01-07 13:23:00,46.0,25.0,30.37,North,360,8.0,-999.0,42,-99.99,,,-99.99,,2013-01-07 18:23:00,
2013-01-07 13:33:00,48.0,25.0,30.37,North,350,9.0,-999.0,39,-99.99,,,-99.99,,2013-01-07 18:33:00,
2013-01-07 13:43:00,48.0,25.0,30.37,North,350,9.0,-999.0,39,-99.99,,,-99.99,,2013-01-07 18:43:00,
2013-01-07 13:52:00,46.0,25.0,30.37,NNW,330,9.0,-999.0,42,-99.99,,,-99.99,,2013-01-07 18:52:00,
2013-01-07 14:03:00,46.0,25.0,30.37,NNW,330,9.0,-999.0,42,-99.99,,,-99.99,,2013-01-07 19:03:00,
2013-01-07 14:12:00,46.0,25.0,30.37,North,350,5.0,-999.0,42,-99.99,,,-99.99,,2013-01-07 19:12:00,
2013-01-07 14:23:00,46.0,25.0,30.37,North,350,5.0,-999.0,42,-99.99,,,-99.99,,2013-01-07 19:23:00,
2013-01-07 14:33:00,46.0,25.0,30.37,North,-99,5.0,-999.0,42,-99.99,,,-99.99,,2013-01-07 19:33:00,
2013-01-07 14:43:00,46.0,25.0,30.37,North,-99,5.0,-999.0,42,-99.99,,,-99.99,,2013-01-07 19:43:00,
2013-01-07 14:52:00,46.0,25.0,30.38,WNW,300,6.0,-999.0,42,-99.99,,,-99.99,,2013-01-07 19:52:00,
2013-01-07 15:03:00,46.0,25.0,30.38,WNW,300,6.0,-999.0,42,-99.99,,,-99.99,,2013-01-07 20:03:00,
2013-01-07 15:12:00,46.0,25.0,30.38,North,350,8.0,-999.0,42,-99.99,,,-99.99,,2013-01-07 20:12:00,
2013-01-07 15:23:00,46.0,25.0,30.38,North,350,8.0,-999.0,42,-99.99,,,-99.99,,2013-01-07 20:23:00,
2013-01-07 15:33:00,46.0,25.0,30.38,NNW,340,6.0,-999.0,42,-99.99,,,-99.99,,2013-01-07 20:33:00,
2013-01-07 15:43:00,46.0,25.0,30.38,NNW,340,6.0,-999.0,42,-99.99,,,-99.99,,2013-01-07 20:43:00,
2013-01-07 15:52:00,46.0,23.0,30.39,NNW,330,5.0,-999.0,39,-99.99,,,-99.99,,2013-01-07 20:52:00,
2013-01-07 16:03:00,46.0,23.0,30.39,NNW,330,5.0,-999.0,39,-99.99,,,-99.99,,2013-01-07 21:03:00,
2013-01-07 16:12:00,46.0,23.0,30.39,North,0,0.0,-999.0,39,-99.99,,,-99.99,,2013-01-07 21:12:00,
2013-01-07 16:23:00,46.0,23.0,30.39,North,0,0.0,-999.0,39,-99.99,,,-99.99,,2013-01-07 21:23:00,
2013-01-07 16:33:00,46.0,23.0,30.40,North,0,0.0,-999.0,39,-99.99,,,-99.99,,2013-01-07 21:33:00,
2013-01-07 16:43:00,46.0,23.0,30.40,North,0,0.0,-999.0,39,-99.99,,,-99.99,,2013-01-07 21:43:00,
2013-01-07 16:52:00,45.0,23.0,30.40,North,0,0.0,-999.0,42,-99.99,,,-99.99,,2013-01-07 21:52:00,
2013-01-07 17:03:00,45.0,23.0,30.40,North,0,0.0,-999.0,42,-99.99,,,-99.99,,2013-01-07 22:03:00,
2013-01-07 17:12:00,45.0,23.0,30.40,North,0,0.0,-999.0,42,-99.99,,,-99.99,,2013-01-07 22:12:00,
2013-01-07 17:23:00,45.0,23.0,30.40,North,0,0.0,-999.0,42,-99.99,,,-99.99,,2013-01-07 22:23:00,
2013-01-07 17:33:00,43.0,21.0,30.41,North,0,0.0,-999.0,41,-99.99,,,-99.99,,2013-01-07 22:33:00,
2013-01-07 17:43:00,43.0,21.0,30.41,North,0,0.0,-999.0,41,-99.99,,,-99.99,,2013-01-07 22:43:00,
2013-01-07 17:53:00,39.0,23.0,30.41,North,0,0.0,-999.0,51,-99.99,,,-99.99,,2013-01-07 22:53:00,
2013-01-07 18:02:00,39.0,23.0,30.41,North,0,0.0,-999.0,51,-99.99,,,-99.99,,2013-01-07 23:02:00,
2013-01-07 18:12:00,37.0,23.0,30.41,North,0,0.0,-999.0,55,-99.99,,,-99.99,,2013-01-07 23:12:00,
2013-01-07 18:23:00,37.0,23.0,30.41,North,0,0.0,-999.0,55,-99.99,,,-99.99,,2013-01-07 23:23:00,
2013-01-07 18:33:00,37.0,23.0,30.41,North,0,0.0,-999.0,55,-99.99,,,-99.99,,2013-01-07 23:33:00,
2013-01-07 18:43:00,37.0,23.0,30.41,North,0,0.0,-999.0,55,-99.99,,,-99.99,,2013-01-07 23:43:00,
2013-01-07 18:53:00,36.0,23.0,30.42,North,0,0.0,-999.0,59,-99.99,,,-99.99,,2013-01-07 23:53:00,
2013-01-07 19:03:00,36.0,23.0,30.42,North,0,0.0,-999.0,59,-99.99,,,-99.99,,2013-01-08 00:03:00,
2013-01-07 19:12:00,36.0,23.0,30.42,North,0,0.0,-999.0,59,-99.99,,,-99.99,,2013-01-08 00:12:00,
2013-01-07 19:23:00,36.0,23.0,30.42,North,0,0.0,-999.0,59,-99.99,,,-99.99,,2013-01-08 00:23:00,
2013-01-07 19:33:00,34.0,25.0,30.41,North,0,0.0,-999.0,69,-99.99,,,-99.99,,2013-01-08 00:33:00,
2013-01-07 19:43:00,34.0,25.0,30.41,North,0,0.0,-999.0,69,-99.99,,,-99.99,,2013-01-08 00:43:00,
2013-01-07 19:53:00,34.0,25.0,30.41,North,0,0.0,-999.0,69,-99.99,,,-99.99,,2013-01-08 00:53:00,
2013-01-07 20:03:00,34.0,25.0,30.41,North,0,0.0,-999.0,69,-99.99,,,-99.99,,2013-01-08 01:03:00,
2013-01-07 20:12:00,32.0,25.0,30.41,North,0,0.0,-999.0,74,-99.99,,,-99.99,,2013-01-08 01:12:00,
2013-01-07 20:22:00,32.0,25.0,30.41,North,0,0.0,-999.0,74,-99.99,,,-99.99,,2013-01-08 01:22:00,
2013-01-07 20:33:00,30.0,23.0,30.41,North,0,0.0,-999.0,74,-99.99,,,-99.99,,2013-01-08 01:33:00,
2013-01-07 20:42:00,30.0,23.0,30.41,North,0,0.0,-999.0,74,-99.99,,,-99.99,,2013-01-08 01:42:00,
2013-01-07 20:52:00,30.0,23.0,30.41,North,0,0.0,-999.0,74,-99.99,,,-99.99,,2013-01-08 01:52:00,
2013-01-07 21:02:00,30.0,23.0,30.41,North,0,0.0,-999.0,74,-99.99,,,-99.99,,2013-01-08 02:02:00,
2013-01-07 21:12:00,30.0,23.0,30.41,North,0,0.0,-999.0,74,-99.99,,,-99.99,,2013-01-08 02:12:00,
2013-01-07 21:22:00,30.0,23.0,30.41,North,0,0.0,-999.0,74,-99.99,,,-99.99,,2013-01-08 02:22:00,
2013-01-07 21:33:00,28.0,21.0,30.42,North,0,0.0,-999.0,74,-99.99,,,-99.99,,2013-01-08 02:33:00,
2013-01-07 21:43:00,28.0,21.0,30.42,North,0,0.0,-999.0,74,-99.99,,,-99.99,,2013-01-08 02:43:00,
2013-01-07 21:53:00,28.0,21.0,30.41,North,0,0.0,-999.0,74,-99.99,,,-99.99,,2013-01-08 02:53:00,
2013-01-07 22:03:00,28.0,21.0,30.41,North,0,0.0,-999.0,74,-99.99,,,-99.99,,2013-01-08 03:03:00,
2013-01-07 22:12:00,28.0,21.0,30.41,North,0,0.0,-999.0,74,-99.99,,,-99.99,,2013-01-08 03:12:00,
2013-01-07 22:22:00,28.0,21.0,30.41,North,0,0.0,-999.0,74,-99.99,,,-99.99,,2013-01-08 03:22:00,
2013-01-07 22:32:00,28.0,21.0,30.41,North,0,0.0,-999.0,74,-99.99,,,-99.99,,2013-01-08 03:32:00,
2013-01-07 22:43:00,28.0,21.0,30.41,North,0,0.0,-999.0,74,-99.99,,,-99.99,,2013-01-08 03:43:00,
2013-01-07 22:52:00,28.0,21.0,30.40,North,0,0.0,-999.0,74,-99.99,,,-99.99,,2013-01-08 03:52:00,
2013-01-07 23:02:00,28.0,21.0,30.40,North,0,0.0,-999.0,74,-99.99,,,-99.99,,2013-01-08 04:02:00,
2013-01-07 23:12:00,28.0,21.0,30.40,North,0,0.0,-999.0,74,-99.99,,,-99.99,,2013-01-08 04:12:00,
2013-01-07 23:22:00,28.0,21.0,30.40,North,0,0.0,-999.0,74,-99.99,,,-99.99,,2013-01-08 04:22:00,
2013-01-07 23:32:00,28.0,21.0,30.40,North,0,0.0,-999.0,74,-99.99,,,-99.99,,2013-01-08 04:32:00,
2013-01-07 23:42:00,28.0,21.0,30.40,North,0,0.0,-999.0,74,-99.99,,,-99.99,,2013-01-08 04:42:00,
2013-01-07 23:52:00,27.0,21.0,30.40,North,0,0.0,-999.0,79,-99.99,,,-99.99,,2013-01-08 04:52:00,